Time;durP1;ratioP1;P1;durP2;ratioP2;P2;SDS_P1;SDS_P2;PMS_P1;PMS_P2;Temp;Humidity;BMP_temperature;BMP_pressure;BME280_temperature;BME280_humidity;BME280_pressure;Samples;Min_cycle;Max_cycle;Signal;HPM_P1;HPM_P2
2023/07/12 00:01:22;;;;;;;1999.90;999.90;;;21.70;89.40;;;;;;5098600;28;20497;-72
2023/07/12 00:03:49;;;;;;;1999.90;999.90;;;21.80;89.80;;;;;;5097645;28;20423;-71
2023/07/12 00:06:23;;;;;;;1999.90;999.90;;;22.00;88.50;;;;;;5100294;28;20036;-71
2023/07/12 00:08:51;;;;;;;1999.90;999.90;;;22.20;88.80;;;;;;5094463;28;20031;-70
2023/07/12 00:11:23;;;;;;;1999.90;999.90;;;22.50;86.30;;;;;;5096829;28;20043;-71
2023/07/12 00:13:57;;;;;;;1999.90;999.90;;;22.60;87.10;;;;;;5104111;28;20027;-71
2023/07/12 00:16:39;;;;;;;1999.90;999.90;;;23.00;85.80;;;;;;5100150;28;20165;-71
2023/07/12 00:19:07;;;;;;;1999.90;999.90;;;23.20;85.40;;;;;;5098102;28;20494;-69
2023/07/12 00:21:34;;;;;;;1999.90;999.90;;;23.50;85.50;;;;;;5098786;28;20120;-70
2023/07/12 00:24:02;;;;;;;1999.90;999.90;;;23.50;84.80;;;;;;5105711;28;20478;-71
2023/07/12 00:26:32;;;;;;;1999.90;999.90;;;23.10;85.40;;;;;;5095249;28;20475;-71
2023/07/12 00:29:01;;;;;;;1999.90;999.90;;;23.80;83.80;;;;;;5099342;28;20036;-71
2023/07/12 00:31:28;;;;;;;1999.90;999.90;;;23.90;82.90;;;;;;5097222;28;20115;-71
2023/07/12 00:33:57;;;;;;;1999.90;999.90;;;23.40;84.40;;;;;;5094521;28;20134;-70
2023/07/12 00:36:30;;;;;;;1999.90;999.90;;;23.10;86.20;;;;;;5095108;28;20028;-70
2023/07/12 00:38:59;;;;;;;1999.90;999.90;;;23.50;84.50;;;;;;5103677;28;20052;-70
2023/07/12 00:41:41;;;;;;;1999.90;999.90;;;23.90;83.70;;;;;;5094739;28;20038;-70
2023/07/12 00:44:17;;;;;;;1999.90;999.90;;;23.80;84.00;;;;;;5094841;28;20024;-70
2023/07/12 00:46:52;;;;;;;1999.90;999.90;;;24.20;84.00;;;;;;5106184;28;20024;-71
2023/07/12 00:49:20;;;;;;;1999.90;999.90;;;24.70;82.30;;;;;;5091148;28;20478;-70
2023/07/12 00:52:04;;;;;;;1999.90;999.90;;;25.00;82.30;;;;;;5086238;28;20039;-72
2023/07/12 00:54:56;;;;;;;1999.90;999.90;;;25.40;82.90;;;;;;5085179;28;20440;-70
2023/07/12 00:57:25;;;;;;;1999.90;999.90;;;26.00;80.20;;;;;;5103226;28;20027;-71
2023/07/12 01:00:10;;;;;;;1999.90;999.90;;;26.30;78.70;;;;;;5087832;28;20746;-70
2023/07/12 01:02:43;;;;;;;1999.90;999.90;;;26.20;78.50;;;;;;5086919;28;20034;-71
2023/07/12 01:05:11;;;;;;;1999.90;999.90;;;26.10;78.80;;;;;;5088278;28;20033;-72
2023/07/12 01:07:38;;;;;;;1999.90;999.90;;;25.80;78.40;;;;;;5098879;28;20024;-71
2023/07/12 01:10:08;;;;;;;1999.90;999.90;;;26.00;78.80;;;;;;5091378;28;20050;-72
2023/07/12 01:12:35;;;;;;;1999.90;999.90;;;26.20;78.70;;;;;;5096024;28;20043;-73
2023/07/12 01:15:03;;;;;;;1999.90;999.90;;;26.40;79.00;;;;;;5091459;28;20474;-71
2023/07/12 01:17:30;;;;;;;1999.90;999.90;;;26.70;79.30;;;;;;5100596;28;20417;-72
2023/07/12 01:19:57;;;;;;;1999.90;999.90;;;27.00;78.60;;;;;;5097810;28;20076;-72
2023/07/12 01:22:25;;;;;;;1999.90;999.90;;;27.20;77.90;;;;;;5098417;28;20057;-71
2023/07/12 01:24:52;;;;;;;1999.90;999.90;;;27.80;74.70;;;;;;5089730;28;20028;-71
2023/07/12 01:27:24;;;;;;;1999.90;999.90;;;27.60;75.30;;;;;;5106295;28;20024;-71
2023/07/12 01:29:53;;;;;;;1999.90;999.90;;;27.50;76.30;;;;;;5092139;28;20116;-72
2023/07/12 01:32:22;;;;;;;1999.90;999.90;;;27.60;75.50;;;;;;5102196;28;20028;-71
2023/07/12 01:34:49;;;;;;;1999.90;999.90;;;27.60;76.10;;;;;;5092422;28;20036;-71
2023/07/12 01:37:16;;;;;;;1999.90;999.90;;;27.90;76.50;;;;;;5101975;28;20028;-73
2023/07/12 01:39:43;;;;;;;1999.90;999.90;;;28.10;75.80;;;;;;5096363;28;20079;-72
2023/07/12 01:42:11;;;;;;;1999.90;999.90;;;28.10;75.40;;;;;;5096753;28;20030;-71
2023/07/12 01:44:38;;;;;;;1999.90;999.90;;;28.00;74.70;;;;;;5095079;28;20488;-72
2023/07/12 01:47:06;;;;;;;1999.90;999.90;;;28.00;74.60;;;;;;5093472;28;20101;-72
2023/07/12 01:49:33;;;;;;;1999.90;999.90;;;28.20;74.10;;;;;;5096900;28;20026;-70
2023/07/12 01:52:00;;;;;;;1999.90;999.90;;;28.10;74.10;;;;;;5099644;28;20036;-70
2023/07/12 01:54:28;;;;;;;1999.90;999.90;;;28.10;75.30;;;;;;5093097;28;20024;-72
2023/07/12 01:56:55;;;;;;;1999.90;999.90;;;28.10;74.40;;;;;;5091347;28;20040;-70
2023/07/12 01:59:22;;;;;;;1999.90;999.90;;;27.90;74.90;;;;;;5091828;28;20048;-71
2023/07/12 02:01:50;;;;;;;1999.90;999.90;;;28.00;75.40;;;;;;5092619;28;20872;-71
2023/07/12 02:04:17;;;;;;;1999.90;999.90;;;27.90;74.70;;;;;;5085594;28;20048;-70
2023/07/12 02:06:44;;;;;;;1999.90;999.90;;;27.80;74.90;;;;;;5094397;28;20150;-70
2023/07/12 02:09:12;;;;;;;1999.90;999.90;;;27.80;75.30;;;;;;5098286;28;20024;-71
2023/07/12 02:11:39;;;;;;;1999.90;999.90;;;27.60;75.10;;;;;;5094658;28;20576;-70
2023/07/12 02:14:11;;;;;;;1999.90;999.90;;;27.60;75.30;;;;;;5098288;28;20028;-70
2023/07/12 02:16:38;;;;;;;1999.90;999.90;;;27.60;75.30;;;;;;5095519;28;20031;-70
2023/07/12 02:19:06;;;;;;;1999.90;999.90;;;26.90;75.30;;;;;;5101740;28;20146;-72
2023/07/12 02:21:52;;;;;;;1999.90;999.90;;;26.70;76.30;;;;;;5093605;28;20032;-71
2023/07/12 02:24:19;;;;;;;1999.90;999.90;;;26.50;76.40;;;;;;5090486;28;20372;-72
2023/07/12 02:26:46;;;;;;;1999.90;999.90;;;25.90;76.20;;;;;;5093612;28;20028;-72
2023/07/12 02:29:14;;;;;;;1999.90;999.90;;;25.80;77.50;;;;;;5094917;28;20024;-70
2023/07/12 02:31:41;;;;;;;1999.90;999.90;;;25.90;77.70;;;;;;5090119;28;20036;-71
2023/07/12 02:34:08;;;;;;;1999.90;999.90;;;26.10;77.70;;;;;;5089852;28;20062;-70
2023/07/12 02:36:36;;;;;;;1999.90;999.90;;;26.00;77.00;;;;;;5091945;28;20623;-69
2023/07/12 02:39:03;;;;;;;1999.90;999.90;;;25.90;77.70;;;;;;5094768;28;20032;-70
2023/07/12 02:41:30;;;;;;;1999.90;999.90;;;26.00;76.90;;;;;;5091287;28;20056;-69
2023/07/12 02:43:58;;;;;;;1999.90;999.90;;;26.00;77.70;;;;;;5093399;28;20028;-68
2023/07/12 02:46:25;;;;;;;1999.90;999.90;;;25.80;76.80;;;;;;5096227;28;20028;-69
2023/07/12 02:48:52;;;;;;;1999.90;999.90;;;25.50;77.50;;;;;;5099649;28;20035;-68
2023/07/12 02:51:20;;;;;;;1999.90;999.90;;;25.40;78.30;;;;;;5089538;28;20036;-68
2023/07/12 02:53:50;;;;;;;1999.90;999.90;;;25.20;78.10;;;;;;5093929;28;20035;-70
2023/07/12 02:56:17;;;;;;;1999.90;999.90;;;25.00;78.60;;;;;;5091348;28;20038;-68
2023/07/12 02:58:45;;;;;;;1999.90;999.90;;;24.90;79.10;;;;;;5100738;28;20367;-69
2023/07/12 03:01:12;;;;;;;1999.90;999.90;;;24.70;78.80;;;;;;5084937;28;20028;-69
2023/07/12 03:03:39;;;;;;;1999.90;999.90;;;24.50;79.20;;;;;;5096378;28;20024;-68
2023/07/12 03:06:10;;;;;;;1999.90;999.90;;;24.40;79.20;;;;;;5095998;28;20418;-69
2023/07/12 03:08:37;;;;;;;1999.90;999.90;;;24.10;78.90;;;;;;5093560;28;20478;-69
2023/07/12 03:11:07;;;;;;;1999.90;999.90;;;23.90;79.50;;;;;;5089957;28;20032;-69
2023/07/12 03:13:34;;;;;;;1999.90;999.90;;;23.70;79.40;;;;;;5098931;28;20111;-68
2023/07/12 03:16:06;;;;;;;1999.90;999.90;;;23.40;80.00;;;;;;5096779;28;20537;-68
2023/07/12 03:18:34;;;;;;;1999.90;999.90;;;23.30;81.10;;;;;;5100386;28;20471;-69
2023/07/12 03:21:03;;;;;;;1999.90;999.90;;;23.20;80.30;;;;;;5094465;28;20070;-68
2023/07/12 03:23:32;;;;;;;1999.90;999.90;;;23.20;80.60;;;;;;5099863;28;20531;-68
2023/07/12 03:25:59;;;;;;;1999.90;999.90;;;23.10;81.20;;;;;;5094745;28;20027;-70
2023/07/12 03:28:27;;;;;;;1999.90;999.90;;;23.00;80.40;;;;;;5100348;28;20062;-69
2023/07/12 03:31:13;;;;;;;1999.90;999.90;;;22.70;80.50;;;;;;5103891;28;20520;-69
2023/07/12 03:33:40;;;;;;;1999.90;999.90;;;22.50;81.10;;;;;;5095531;28;20551;-68
2023/07/12 03:36:08;;;;;;;1999.90;999.90;;;22.00;81.70;;;;;;5096439;28;20028;-68
2023/07/12 03:38:35;;;;;;;1999.90;999.90;;;21.70;82.10;;;;;;5100130;28;20020;-68
2023/07/12 03:41:06;;;;;;;1999.90;999.90;;;21.40;82.50;;;;;;5100791;28;20027;-68
2023/07/12 03:43:34;;;;;;;1999.90;999.90;;;21.10;83.60;;;;;;5099832;28;20016;-68
2023/07/12 03:46:02;;;;;;;1999.90;999.90;;;21.00;84.10;;;;;;5098026;28;20028;-68
2023/07/12 03:48:30;;;;;;;1999.90;999.90;;;20.90;83.60;;;;;;5098410;28;20023;-69
2023/07/12 03:50:58;;;;;;;1999.90;999.90;;;20.60;84.20;;;;;;5092959;28;20197;-68
2023/07/12 03:53:27;;;;;;;1999.90;999.90;;;20.50;85.20;;;;;;5098947;28;20024;-68
2023/07/12 03:55:59;;;;;;;1999.90;999.90;;;20.40;85.90;;;;;;5091233;28;20028;-68
2023/07/12 03:58:30;;;;;;;1999.90;999.90;;;20.30;86.10;;;;;;5100768;28;20020;-70
2023/07/12 04:01:01;;;;;;;1999.90;999.90;;;20.30;85.10;;;;;;5092681;28;20115;-70
2023/07/12 04:03:28;;;;;;;1999.90;999.90;;;20.20;84.30;;;;;;5095005;28;20028;-69
2023/07/12 04:05:55;;;;;;;1999.90;999.90;;;20.10;84.80;;;;;;5104932;28;20119;-69
2023/07/12 04:08:23;;;;;;;1999.90;999.90;;;20.00;85.90;;;;;;5089906;28;20017;-68
2023/07/12 04:10:55;;;;;;;1999.90;999.90;;;19.90;86.20;;;;;;5087898;28;20090;-69
2023/07/12 04:13:23;;;;;;;1999.90;999.90;;;19.90;86.10;;;;;;5086954;28;20028;-68
2023/07/12 04:15:56;;;;;;;1999.90;999.90;;;19.90;86.30;;;;;;5094893;28;20034;-68
2023/07/12 04:18:24;;;;;;;1999.90;999.90;;;19.90;85.50;;;;;;5089260;28;20124;-68
2023/07/12 04:20:53;;;;;;;1999.90;999.90;;;19.90;86.40;;;;;;5087699;28;20035;-69
2023/07/12 04:23:20;;;;;;;1999.90;999.90;;;19.80;86.80;;;;;;5091703;28;20035;-70
2023/07/12 04:25:48;;;;;;;1999.90;999.90;;;19.70;86.80;;;;;;5095637;28;20039;-69
2023/07/12 04:28:16;;;;;;;1999.90;999.90;;;19.60;86.60;;;;;;5097968;28;20020;-68
2023/07/12 04:30:43;;;;;;;1999.90;999.90;;;19.60;87.40;;;;;;5089316;28;20108;-69
2023/07/12 04:33:10;;;;;;;1999.90;999.90;;;19.50;88.30;;;;;;5092383;28;20518;-67
2023/07/12 04:35:40;;;;;;;1999.90;999.90;;;19.50;87.70;;;;;;5088471;28;20160;-68
2023/07/12 04:38:08;;;;;;;1999.90;999.90;;;19.40;88.10;;;;;;5086845;28;20020;-67
2023/07/12 04:40:35;;;;;;;1999.90;999.90;;;19.40;88.30;;;;;;5082321;28;20469;-68
2023/07/12 04:43:03;;;;;;;1999.90;999.90;;;19.40;88.80;;;;;;5082629;28;20487;-68
2023/07/12 04:45:30;;;;;;;1999.90;999.90;;;19.30;88.80;;;;;;5079300;28;20085;-71
2023/07/12 04:47:57;;;;;;;1999.90;999.90;;;19.30;88.90;;;;;;5088484;28;20498;-68
2023/07/12 04:50:25;;;;;;;1999.90;999.90;;;19.30;88.40;;;;;;5088085;28;20051;-67
2023/07/12 04:52:52;;;;;;;1999.90;999.90;;;19.30;88.80;;;;;;5089958;28;20080;-69
2023/07/12 04:55:25;;;;;;;1999.90;999.90;;;19.30;89.10;;;;;;5085978;28;20106;-68
2023/07/12 04:57:54;;;;;;;1999.90;999.90;;;19.30;89.30;;;;;;5093876;28;20049;-68
2023/07/12 05:00:24;;;;;;;1999.90;999.90;;;19.30;89.50;;;;;;5087033;28;20020;-68
2023/07/12 05:02:53;;;;;;;1999.90;999.90;;;19.30;89.70;;;;;;5091527;28;20509;-68
2023/07/12 05:05:21;;;;;;;1999.90;999.90;;;19.30;89.30;;;;;;5082668;28;20052;-70
2023/07/12 05:07:49;;;;;;;1999.90;999.90;;;19.20;89.00;;;;;;5092887;28;20415;-70
2023/07/12 05:10:17;;;;;;;1999.90;999.90;;;19.20;88.90;;;;;;5087677;28;20032;-69
2023/07/12 05:12:45;;;;;;;1999.90;999.90;;;19.20;89.50;;;;;;5088745;28;20030;-70
2023/07/12 05:15:13;;;;;;;1999.90;999.90;;;19.20;89.50;;;;;;5094978;28;20498;-70
2023/07/12 05:17:40;;;;;;;1999.90;999.90;;;19.10;89.60;;;;;;5089211;28;20984;-69
2023/07/12 05:20:12;;;;;;;1999.90;999.90;;;19.20;89.60;;;;;;5088481;28;20460;-69
2023/07/12 05:22:40;;;;;;;1999.90;999.90;;;19.20;89.30;;;;;;5087079;28;20031;-68
2023/07/12 05:25:08;;;;;;;1999.90;999.90;;;19.10;89.70;;;;;;5076036;28;20963;-68
2023/07/12 05:27:35;;;;;;;1999.90;999.90;;;19.10;89.50;;;;;;5086638;28;20028;-70
2023/07/12 05:30:03;;;;;;;1999.90;999.90;;;19.00;89.80;;;;;;5088816;28;20056;-69
2023/07/12 05:32:30;;;;;;;1999.90;999.90;;;19.00;89.70;;;;;;5085979;28;20032;-70
2023/07/12 05:34:58;;;;;;;1999.90;999.90;;;19.00;89.80;;;;;;5082721;28;20068;-68
2023/07/12 05:37:25;;;;;;;1999.90;999.90;;;19.00;90.00;;;;;;5097041;28;20034;-68
2023/07/12 05:39:52;;;;;;;1999.90;999.90;;;19.00;89.70;;;;;;5083770;28;20038;-70
2023/07/12 05:42:20;;;;;;;1999.90;999.90;;;19.00;90.00;;;;;;5088000;28;20038;-70
2023/07/12 05:44:47;;;;;;;1999.90;999.90;;;19.00;90.00;;;;;;5088387;28;20191;-70
2023/07/12 05:47:15;;;;;;;1999.90;999.90;;;18.90;90.10;;;;;;5089206;28;20047;-71
2023/07/12 05:49:43;;;;;;;1999.90;999.90;;;18.90;90.00;;;;;;5083314;28;20368;-69
2023/07/12 05:52:10;;;;;;;1999.90;999.90;;;18.90;90.10;;;;;;5082554;28;20039;-70
2023/07/12 05:54:38;;;;;;;1999.90;999.90;;;18.90;90.30;;;;;;5081223;28;20052;-71
2023/07/12 05:57:05;;;;;;;1999.90;999.90;;;18.90;90.20;;;;;;5085365;28;20032;-70
2023/07/12 05:59:33;;;;;;;1999.90;999.90;;;18.80;90.30;;;;;;5083450;28;20016;-71
2023/07/12 06:02:00;;;;;;;1999.90;999.90;;;18.80;90.20;;;;;;5085387;28;20048;-72
2023/07/12 06:04:27;;;;;;;1999.90;999.90;;;18.80;90.30;;;;;;5092331;28;20048;-71
2023/07/12 06:06:54;;;;;;;1999.90;999.90;;;18.80;90.30;;;;;;5085691;28;20138;-71
2023/07/12 06:09:22;;;;;;;1999.90;999.90;;;18.80;90.70;;;;;;5080672;28;20029;-71
2023/07/12 06:11:49;;;;;;;1999.90;999.90;;;18.80;90.60;;;;;;5091678;28;20040;-70
2023/07/12 06:14:16;;;;;;;1999.90;999.90;;;18.80;90.50;;;;;;5092607;28;20038;-72
2023/07/12 06:16:44;;;;;;;1999.90;999.90;;;18.90;90.20;;;;;;5085486;28;20501;-70
2023/07/12 06:19:12;;;;;;;1999.90;999.90;;;18.90;90.30;;;;;;5090096;28;20035;-70
2023/07/12 06:21:39;;;;;;;1999.90;999.90;;;18.90;90.20;;;;;;5085097;28;20046;-72
2023/07/12 06:24:07;;;;;;;1999.90;999.90;;;18.90;90.30;;;;;;5089673;28;20032;-70
2023/07/12 06:26:34;;;;;;;1999.90;999.90;;;19.00;90.20;;;;;;5093616;28;20026;-72
2023/07/12 06:29:03;;;;;;;1999.90;999.90;;;19.00;90.30;;;;;;5088905;28;20515;-73
2023/07/12 06:31:30;;;;;;;1999.90;999.90;;;19.00;90.20;;;;;;5094732;28;20044;-72
2023/07/12 06:34:05;;;;;;;1999.90;999.90;;;19.00;90.20;;;;;;5096545;28;20036;-72
2023/07/12 06:36:34;;;;;;;1999.90;999.90;;;18.90;90.30;;;;;;5095918;28;20038;-71
2023/07/12 06:39:02;;;;;;;1999.90;999.90;;;18.80;90.20;;;;;;5087525;28;20655;-71
2023/07/12 06:41:30;;;;;;;1999.90;999.90;;;18.80;90.30;;;;;;5090403;28;20039;-70
2023/07/12 06:43:57;;;;;;;1999.90;999.90;;;18.60;90.50;;;;;;5088177;28;20032;-70
2023/07/12 06:46:24;;;;;;;1999.90;999.90;;;18.50;90.70;;;;;;5094926;28;20032;-70
2023/07/12 06:48:52;;;;;;;1999.90;999.90;;;18.30;90.90;;;;;;5091022;28;20039;-71
2023/07/12 06:51:19;;;;;;;1999.90;999.90;;;18.10;91.00;;;;;;5094925;28;20046;-72
2023/07/12 06:53:46;;;;;;;1999.90;999.90;;;17.90;91.40;;;;;;5100872;28;20064;-72
2023/07/12 06:56:14;;;;;;;1999.90;999.90;;;17.80;91.50;;;;;;5093912;28;20057;-72
2023/07/12 06:58:41;;;;;;;1999.90;999.90;;;17.70;91.70;;;;;;5097428;28;20045;-73
2023/07/12 07:01:10;;;;;;;1999.90;999.90;;;17.60;92.00;;;;;;5095944;28;20028;-72
2023/07/12 07:03:38;;;;;;;1999.90;999.90;;;17.40;92.10;;;;;;5094497;28;20034;-71
2023/07/12 07:06:05;;;;;;;1999.90;999.90;;;17.20;92.30;;;;;;5089183;28;20044;-71
2023/07/12 07:08:33;;;;;;;1999.90;999.90;;;17.20;92.60;;;;;;5100884;28;20020;-70
2023/07/12 07:11:00;;;;;;;1999.90;999.90;;;17.00;92.80;;;;;;5093965;28;20047;-72
2023/07/12 07:13:28;;;;;;;1999.90;999.90;;;16.80;93.30;;;;;;5096734;28;20068;-71
2023/07/12 07:15:55;;;;;;;1999.90;999.90;;;16.70;93.30;;;;;;5086267;28;20024;-70
2023/07/12 07:18:23;;;;;;;1999.90;999.90;;;16.50;93.60;;;;;;5096935;28;20031;-70
2023/07/12 07:20:54;;;;;;;1999.90;999.90;;;16.30;93.80;;;;;;5095990;28;20039;-69
2023/07/12 07:23:22;;;;;;;1999.90;999.90;;;16.10;94.00;;;;;;5095777;28;20058;-71
2023/07/12 07:25:49;;;;;;;1999.90;999.90;;;16.00;94.30;;;;;;5087620;28;20427;-69
2023/07/12 07:28:16;;;;;;;1999.90;999.90;;;15.80;94.60;;;;;;5091928;28;20028;-72
2023/07/12 07:30:44;;;;;;;1999.90;999.90;;;15.70;94.80;;;;;;5088764;28;20423;-70
2023/07/12 07:33:12;;;;;;;1999.90;999.90;;;15.50;95.00;;;;;;5088426;28;20028;-70
2023/07/12 07:35:39;;;;;;;1999.90;999.90;;;15.30;95.30;;;;;;5089160;28;20111;-69
2023/07/12 07:38:07;;;;;;;1999.90;999.90;;;15.20;95.60;;;;;;5092760;28;20062;-69
2023/07/12 07:40:34;;;;;;;1999.90;999.90;;;15.10;95.80;;;;;;5094131;28;20028;-69
2023/07/12 07:43:02;;;;;;;1999.90;999.90;;;14.90;96.00;;;;;;5093048;28;20033;-69
2023/07/12 07:45:29;;;;;;;1999.90;999.90;;;14.80;96.20;;;;;;5090306;28;20063;-70
2023/07/12 07:47:57;;;;;;;1999.90;999.90;;;14.70;96.40;;;;;;5090854;28;20111;-71
2023/07/12 07:50:24;;;;;;;1999.90;999.90;;;14.60;96.60;;;;;;5096757;28;20071;-71
2023/07/12 07:52:53;;;;;;;1999.90;999.90;;;14.50;96.80;;;;;;5092844;28;20050;-71
2023/07/12 07:55:21;;;;;;;1999.90;999.90;;;14.40;97.00;;;;;;5092068;28;20024;-71
2023/07/12 07:57:48;;;;;;;1999.90;999.90;;;14.30;97.60;;;;;;5097560;28;20099;-72
2023/07/12 08:00:16;;;;;;;1999.90;999.90;;;14.10;97.60;;;;;;5091010;28;20072;-71
2023/07/12 08:02:44;;;;;;;1999.90;999.90;;;14.00;97.80;;;;;;5095726;28;20028;-71
2023/07/12 08:05:14;;;;;;;1999.90;999.90;;;13.90;98.00;;;;;;5104123;28;20352;-70
2023/07/12 08:07:46;;;;;;;1999.90;999.90;;;13.80;98.30;;;;;;5102965;28;20055;-70
2023/07/12 08:10:17;;;;;;;1999.90;999.90;;;13.70;98.60;;;;;;5091354;28;20028;-71
2023/07/12 08:12:46;;;;;;;1999.90;999.90;;;13.60;98.90;;;;;;5091903;28;20036;-75
2023/07/12 08:15:13;;;;;;;1999.90;999.90;;;13.60;99.20;;;;;;5086240;28;20078;-71
2023/07/12 08:17:40;;;;;;;1999.90;999.90;;;13.50;99.60;;;;;;5103729;28;20040;-72
2023/07/12 08:20:08;;;;;;;1999.90;999.90;;;13.50;99.80;;;;;;5099485;28;20364;-72
2023/07/12 08:22:36;;;;;;;1999.90;999.90;;;13.40;99.90;;;;;;5105661;28;20486;-72
2023/07/12 08:25:04;;;;;;;1999.90;999.90;;;13.40;99.90;;;;;;5096640;28;20028;-73
2023/07/12 08:27:32;;;;;;;1999.90;999.90;;;13.30;99.90;;;;;;5101787;28;20482;-71
2023/07/12 08:29:59;;;;;;;1999.90;999.90;;;13.20;99.90;;;;;;5100776;28;20044;-69
2023/07/12 08:32:32;;;;;;;1999.90;999.90;;;13.10;99.90;;;;;;5102349;28;20038;-72
2023/07/12 08:35:00;;;;;;;1999.90;999.90;;;13.00;99.90;;;;;;5098911;28;20397;-71
2023/07/12 08:37:28;;;;;;;1999.90;999.90;;;12.90;99.90;;;;;;5100261;28;20031;-70
2023/07/12 08:39:56;;;;;;;1999.90;999.90;;;12.90;99.90;;;;;;5093981;28;20028;-70
2023/07/12 08:42:44;;;;;;;1999.90;999.90;;;12.80;99.90;;;;;;5098542;28;20111;-72
2023/07/12 08:45:23;;;;;;;1999.90;999.90;;;12.80;99.90;;;;;;5089054;28;20036;-71
2023/07/12 08:47:57;;;;;;;1999.90;999.90;;;12.70;99.90;;;;;;5103513;28;20028;-70
2023/07/12 08:50:25;;;;;;;1999.90;999.90;;;12.60;99.90;;;;;;5094434;28;20023;-71
2023/07/12 08:52:53;;;;;;;1999.90;999.90;;;12.60;99.90;;;;;;5096999;28;20024;-70
2023/07/12 08:55:22;;;;;;;1999.90;999.90;;;12.60;99.90;;;;;;5088032;28;20028;-71
2023/07/12 08:58:11;;;;;;;1999.90;999.90;;;12.50;99.90;;;;;;5099431;28;20413;-71
2023/07/12 09:00:41;;;;;;;1999.90;999.90;;;12.40;99.90;;;;;;5092483;28;20035;-75
2023/07/12 09:03:08;;;;;;;1999.90;999.90;;;12.40;99.90;;;;;;5089968;28;20031;-71
2023/07/12 09:05:35;;;;;;;1999.90;999.90;;;12.30;99.90;;;;;;5082070;28;20478;-71
2023/07/12 09:08:17;;;;;;;1999.90;999.90;;;12.20;99.90;;;;;;5098299;28;20107;-71
2023/07/12 09:10:59;;;;;;;1999.90;999.90;;;12.20;99.90;;;;;;5100253;28;20030;-70
2023/07/12 09:13:34;;;;;;;1999.90;999.90;;;12.20;99.90;;;;;;5076597;28;20080;-70
2023/07/12 09:16:23;;;;;;;1999.90;999.90;;;12.10;99.90;;;;;;5089354;28;20047;-72
2023/07/12 09:18:57;;;;;;;1999.90;999.90;;;12.00;99.90;;;;;;5084856;28;20029;-72
2023/07/12 09:21:37;;;;;;;1999.90;999.90;;;12.00;99.90;;;;;;5083323;28;20059;-70
2023/07/12 09:24:15;;;;;;;1999.90;999.90;;;12.00;99.90;;;;;;5090428;28;20085;-72
2023/07/12 09:26:43;;;;;;;1999.90;999.90;;;12.00;99.90;;;;;;5105284;28;20027;-70
2023/07/12 09:29:24;;;;;;;1999.90;999.90;;;11.90;99.90;;;;;;5098978;28;20463;-72
2023/07/12 09:31:57;;;;;;;1999.90;999.90;;;11.90;99.90;;;;;;5084970;28;20097;-72
2023/07/12 09:34:35;;;;;;;1999.90;999.90;;;11.90;99.90;;;;;;5093046;28;20028;-72
2023/07/12 09:37:03;;;;;;;1999.90;999.90;;;11.80;99.90;;;;;;5084210;28;20030;-71
2023/07/12 09:39:32;;;;;;;1999.90;999.90;;;11.80;99.90;;;;;;5095285;28;20471;-71
2023/07/12 09:42:02;;;;;;;1999.90;999.90;;;11.70;99.90;;;;;;5106753;28;20043;-71
2023/07/12 09:44:32;;;;;;;1999.90;999.90;;;11.70;99.90;;;;;;5093841;28;20032;-72
2023/07/12 09:47:28;;;;;;;1999.90;999.90;;;11.60;99.90;;;;;;5105424;28;20027;-71
2023/07/12 09:50:07;;;;;;;1999.90;999.90;;;11.50;99.90;;;;;;5097681;28;20477;-71
2023/07/12 09:52:44;;;;;;;1999.90;999.90;;;11.50;99.90;;;;;;5100105;28;20424;-71
2023/07/12 09:55:35;;;;;;;1999.90;999.90;;;11.50;99.90;;;;;;5087731;28;20031;-72
2023/07/12 09:58:24;;;;;;;1999.90;999.90;;;11.40;99.90;;;;;;5092946;28;20032;-70
2023/07/12 10:01:31;;;;;;;1999.90;999.90;;;11.30;99.90;;;;;;5098853;28;20481;-71
2023/07/12 10:04:17;;;;;;;1999.90;999.90;;;11.30;99.90;;;;;;5094328;28;20367;-70
2023/07/12 10:06:49;;;;;;;1999.90;999.90;;;11.20;99.90;;;;;;5094215;28;20118;-71
2023/07/12 10:09:22;;;;;;;1999.90;999.90;;;11.10;99.90;;;;;;5097986;28;20038;-71
2023/07/12 10:12:23;;;;;;;1999.90;999.90;;;11.10;99.90;;;;;;5098319;28;20127;-71
2023/07/12 10:14:53;;;;;;;1999.90;999.90;;;11.00;99.90;;;;;;5092687;28;20100;-72
2023/07/12 10:17:32;;;;;;;1999.90;999.90;;;10.90;99.90;;;;;;5099997;28;20153;-71
2023/07/12 10:20:01;;;;;;;1999.90;999.90;;;10.80;99.90;;;;;;5090614;28;20021;-71
2023/07/12 10:22:40;;;;;;;1999.90;999.90;;;10.80;99.90;;;;;;5098016;28;20040;-71
2023/07/12 10:25:34;;;;;;;1999.90;999.90;;;10.70;99.90;;;;;;5086482;28;20028;-71
2023/07/12 10:28:07;;;;;;;1999.90;999.90;;;10.60;99.90;;;;;;5102701;28;20019;-71
2023/07/12 10:30:36;;;;;;;1999.90;999.90;;;10.50;99.90;;;;;;5093835;28;20032;-72
2023/07/12 10:33:12;;;;;;;1999.90;999.90;;;10.40;99.90;;;;;;5100347;28;20019;-71
2023/07/12 10:36:12;;;;;;;1999.90;999.90;;;10.30;99.90;;;;;;5090179;28;20028;-70
2023/07/12 10:38:39;;;;;;;1999.90;999.90;;;10.30;99.90;;;;;;5066698;28;20065;-71
2023/07/12 10:41:18;;;;;;;1999.90;999.90;;;10.20;99.90;;;;;;5087403;28;20031;-71
2023/07/12 10:43:49;;;;;;;1999.90;999.90;;;10.20;99.90;;;;;;5097073;28;20059;-70
2023/07/12 10:46:30;;;;;;;1999.90;999.90;;;10.20;99.90;;;;;;5089603;28;20078;-71
2023/07/12 10:48:59;;;;;;;1999.90;999.90;;;10.10;99.90;;;;;;5100946;28;20127;-71
2023/07/12 10:51:37;;;;;;;1999.90;999.90;;;10.10;99.90;;;;;;5096425;28;20039;-70
2023/07/12 10:54:22;;;;;;;1999.90;999.90;;;10.00;99.90;;;;;;5094071;28;20028;-72
2023/07/12 10:57:02;;;;;;;1999.90;999.90;;;10.00;99.90;;;;;;5096288;28;20020;-71
2023/07/12 10:59:35;;;;;;;1999.90;999.90;;;9.90;99.90;;;;;;5087218;28;20082;-71
2023/07/12 11:02:05;;;;;;;1999.90;999.90;;;9.80;99.90;;;;;;5092338;28;20111;-70
2023/07/12 11:04:32;;;;;;;1999.90;999.90;;;9.80;99.90;;;;;;5080689;28;20405;-70
2023/07/12 11:07:15;;;;;;;1999.90;999.90;;;9.70;99.90;;;;;;5090490;28;20425;-71
2023/07/12 11:09:48;;;;;;;1999.90;999.90;;;9.70;99.90;;;;;;5088988;28;20020;-70
2023/07/12 11:12:18;;;;;;;1999.90;999.90;;;9.70;99.90;;;;;;5086962;28;20115;-71
2023/07/12 11:15:22;;;;;;;1999.90;999.90;;;9.60;99.90;;;;;;5102251;28;20011;-70
2023/07/12 11:18:04;;;;;;;1999.90;999.90;;;9.50;99.90;;;;;;5096768;28;20065;-70
2023/07/12 11:20:35;;;;;;;1999.90;999.90;;;9.50;99.90;;;;;;5094180;28;20040;-72
2023/07/12 11:23:06;;;;;;;1999.90;999.90;;;9.50;99.90;;;;;;5096401;28;20026;-70
2023/07/12 11:25:58;;;;;;;1999.90;999.90;;;9.50;99.90;;;;;;5092427;28;20617;-71
2023/07/12 11:28:39;;;;;;;1999.90;999.90;;;9.50;99.90;;;;;;5092096;28;20020;-72
2023/07/12 11:31:26;;;;;;;1999.90;999.90;;;9.50;99.90;;;;;;5090515;28;20032;-72
2023/07/12 11:34:04;;;;;;;1999.90;999.90;;;9.50;99.90;;;;;;5095150;28;20028;-71
2023/07/12 11:36:36;;;;;;;1999.90;999.90;;;9.50;99.90;;;;;;5096534;28;20035;-72
2023/07/12 11:39:11;;;;;;;1999.90;999.90;;;9.50;99.90;;;;;;5098107;28;20049;-71
2023/07/12 11:41:42;;;;;;;1999.90;999.90;;;9.50;99.90;;;;;;5095166;28;20028;-71
2023/07/12 11:44:17;;;;;;;1999.90;999.90;;;9.50;99.90;;;;;;5095687;28;20086;-71
2023/07/12 11:46:47;;;;;;;1999.90;999.90;;;9.50;99.90;;;;;;5099696;28;20063;-71
2023/07/12 11:49:16;;;;;;;1999.90;999.90;;;9.50;99.90;;;;;;5100410;28;20036;-71
2023/07/12 11:51:46;;;;;;;1999.90;999.90;;;9.40;99.90;;;;;;5092701;28;20373;-73
2023/07/12 11:54:21;;;;;;;1999.90;999.90;;;9.40;99.90;;;;;;5093322;28;20035;-72
2023/07/12 11:56:50;;;;;;;1999.90;999.90;;;9.40;99.90;;;;;;5103076;28;20069;-73
2023/07/12 11:59:21;;;;;;;1999.90;999.90;;;9.40;99.90;;;;;;5100598;28;20454;-72
2023/07/12 12:01:50;;;;;;;1999.90;999.90;;;9.40;99.90;;;;;;5098179;28;20031;-72
2023/07/12 12:04:22;;;;;;;1999.90;999.90;;;9.30;99.90;;;;;;5079018;28;20331;-72
2023/07/12 12:06:55;;;;;;;1999.90;999.90;;;9.40;99.90;;;;;;5116652;27;20100;-69
2023/07/12 12:09:30;;;;;;;1999.90;999.90;;;9.30;99.90;;;;;;5113144;27;20565;-70
2023/07/12 12:11:59;;;;;;;1999.90;999.90;;;9.30;99.90;;;;;;5119678;27;20128;-72
2023/07/12 12:14:38;;;;;;;1999.90;999.90;;;9.30;99.90;;;;;;5117603;27;20032;-71
2023/07/12 12:17:12;;;;;;;1999.90;999.90;;;9.20;99.90;;;;;;5121583;27;20138;-71
2023/07/12 12:19:40;;;;;;;1999.90;999.90;;;9.20;99.90;;;;;;5119799;27;20105;-73